Time;durP1;ratioP1;P1;durP2;ratioP2;P2;SDS_P1;SDS_P2;PMS_P1;PMS_P2;Temp;Humidity;BMP_temperature;BMP_pressure;BME280_temperature;BME280_humidity;BME280_pressure;Samples;Min_cycle;Max_cycle;Signal;HPM_P1;HPM_P2
2022/04/25 00:01:07;;;;;;;67.25;37.00;;;9.10;99.90;;;;;;4954959;28;20479;-82
2022/04/25 00:03:32;;;;;;;58.13;33.70;;;9.10;99.90;;;;;;4933398;28;20216;-81
2022/04/25 00:05:58;;;;;;;65.00;38.53;;;9.00;99.90;;;;;;4951256;28;20185;-84
2022/04/25 00:08:23;;;;;;;59.83;35.17;;;9.10;99.90;;;;;;4955580;28;20188;-86
2022/04/25 00:10:49;;;;;;;60.57;35.00;;;9.10;99.90;;;;;;4952050;28;20216;-83
2022/04/25 00:13:14;;;;;;;60.37;36.53;;;9.10;99.90;;;;;;4935912;28;20332;-86
2022/04/25 00:15:41;;;;;;;63.20;36.70;;;9.10;99.90;;;;;;4945266;28;20192;-83
2022/04/25 00:18:07;;;;;;;62.05;38.38;;;9.10;99.90;;;;;;4956110;28;20207;-85
2022/04/25 00:20:32;;;;;;;64.90;38.90;;;9.10;99.90;;;;;;4944413;28;20637;-84
2022/04/25 00:23:00;;;;;;;73.80;38.30;;;9.10;99.90;;;;;;4944801;28;20173;-86
2022/04/25 00:25:28;;;;;;;62.95;37.53;;;9.10;99.90;;;;;;4924374;28;20253;-84
2022/04/25 00:27:53;;;;;;;63.53;35.70;;;9.10;99.90;;;;;;4935801;28;20275;-83
2022/04/25 00:30:19;;;;;;;64.30;35.57;;;9.10;99.90;;;;;;4951106;28;20298;-82
2022/04/25 00:32:45;;;;;;;56.97;34.50;;;9.10;99.90;;;;;;4933458;28;20180;-86
2022/04/25 00:35:10;;;;;;;52.97;34.47;;;9.10;99.90;;;;;;4933330;28;20183;-83
2022/04/25 00:37:36;;;;;;;60.83;36.27;;;9.10;99.90;;;;;;4951466;28;20176;-85
2022/04/25 00:40:02;;;;;;;62.93;37.47;;;9.10;99.90;;;;;;4925041;28;20196;-82
2022/04/25 00:42:28;;;;;;;61.70;37.60;;;9.10;99.90;;;;;;4942596;28;20282;-83
2022/04/25 00:44:54;;;;;;;63.88;35.25;;;9.10;99.90;;;;;;4943816;28;20200;-83
2022/04/25 00:47:20;;;;;;;67.80;35.80;;;9.10;99.90;;;;;;4947680;28;20207;-81
2022/04/25 00:49:45;;;;;;;61.15;36.90;;;9.10;99.90;;;;;;4929742;28;20208;-84
2022/04/25 00:52:11;;;;;;;70.43;40.90;;;9.10;99.90;;;;;;4933730;28;20693;-84
2022/04/25 00:54:36;;;;;;;68.47;37.30;;;9.10;99.90;;;;;;4932627;28;20348;-81
2022/04/25 00:57:02;;;;;;;65.63;39.33;;;9.10;99.90;;;;;;4939372;28;20180;-85
2022/04/25 00:59:28;;;;;;;68.63;40.80;;;9.10;99.90;;;;;;4943147;28;20234;-82
2022/04/25 01:01:54;;;;;;;69.27;41.43;;;9.00;99.90;;;;;;4930303;28;20662;-84
2022/04/25 01:04:20;;;;;;;71.17;39.40;;;9.10;99.90;;;;;;4950631;28;20488;-86
2022/04/25 01:06:48;;;;;;;74.68;39.35;;;9.00;99.90;;;;;;4937599;28;20270;-82
2022/04/25 01:09:14;;;;;;;60.00;38.67;;;9.00;99.90;;;;;;4947920;28;20204;-83
2022/04/25 01:11:39;;;;;;;61.95;36.50;;;9.00;99.90;;;;;;4938020;28;20719;-79
2022/04/25 01:14:17;;;;;;;71.43;38.77;;;9.00;99.90;;;;;;4959748;28;20247;-85
2022/04/25 01:16:43;;;;;;;58.05;37.45;;;9.00;99.90;;;;;;4928413;28;20184;-81
2022/04/25 01:19:09;;;;;;;66.07;37.55;;;9.00;99.90;;;;;;4954830;28;20188;-84
2022/04/25 01:21:52;;;;;;;66.20;37.10;;;9.00;99.90;;;;;;4937283;28;20208;-85
2022/04/25 01:27:15;;;;;;;62.90;37.42;;;9.00;99.90;;;;;;4954195;28;20218;-83
2022/04/25 01:29:42;;;;;;;73.00;38.70;;;8.90;99.90;;;;;;4954949;28;20204;-83
2022/04/25 01:32:08;;;;;;;64.20;38.88;;;8.90;99.90;;;;;;4921663;28;20208;-87
2022/04/25 01:34:37;;;;;;;65.50;37.60;;;8.90;99.90;;;;;;4932426;28;20248;-82
2022/04/25 01:37:07;;;;;;;67.57;39.53;;;8.90;99.90;;;;;;4925818;28;20188;-82
2022/04/25 01:39:40;;;;;;;61.95;39.75;;;8.90;99.90;;;;;;4931561;29;20188;-84
2022/04/25 01:42:07;;;;;;;67.63;39.42;;;8.90;99.90;;;;;;4931471;28;20211;-83
2022/04/25 01:44:34;;;;;;;65.45;40.97;;;8.80;99.90;;;;;;4940887;28;20187;-84
2022/04/25 01:47:00;;;;;;;65.13;40.53;;;8.90;99.90;;;;;;4949326;28;20184;-84
2022/04/25 01:49:25;;;;;;;66.00;40.27;;;8.80;99.90;;;;;;4946005;28;20283;-83
2022/04/25 01:51:51;;;;;;;61.90;37.60;;;8.80;99.90;;;;;;4932736;28;20196;-85
2022/04/25 01:54:24;;;;;;;70.23;36.50;;;8.80;99.90;;;;;;4953755;28;20189;-84
2022/04/25 01:56:49;;;;;;;65.63;37.50;;;8.80;99.90;;;;;;4942164;28;20176;-87
2022/04/25 01:59:15;;;;;;;65.67;39.13;;;8.80;99.90;;;;;;4932622;28;20196;-84
2022/04/25 02:01:40;;;;;;;67.67;38.63;;;8.80;99.90;;;;;;4945179;28;20208;-86
2022/04/25 02:04:06;;;;;;;65.17;38.13;;;8.70;99.90;;;;;;4928356;28;20192;-83
2022/04/25 02:06:31;;;;;;;61.33;37.10;;;8.70;99.90;;;;;;4948867;28;20199;-84
2022/04/25 02:08:57;;;;;;;78.40;42.60;;;8.70;99.90;;;;;;4945613;28;20224;-82
2022/04/25 02:11:24;;;;;;;66.10;37.20;;;8.70;99.90;;;;;;4951822;28;20303;-85
2022/04/25 02:16:22;;;;;;;64.25;40.60;;;8.70;99.90;;;;;;4987271;28;20441;-88
2022/04/25 02:18:49;;;;;;;61.28;37.10;;;8.70;99.90;;;;;;4987252;28;20190;-87
2022/04/25 02:21:14;;;;;;;62.40;38.35;;;8.70;99.90;;;;;;4998174;28;20175;-87
2022/04/25 02:23:41;;;;;;;63.70;39.07;;;;;;;;;;4991000;28;20230;-87
2022/04/25 02:26:10;;;;;;;64.07;39.30;;;8.70;99.90;;;;;;4989537;28;20211;-87
2022/04/25 02:28:37;;;;;;;67.07;41.13;;;8.80;99.90;;;;;;4968270;28;20196;-86
2022/04/25 02:31:04;;;;;;;68.78;41.22;;;8.80;99.90;;;;;;4981020;28;20214;-87
2022/04/25 02:33:34;;;;;;;65.70;39.72;;;8.80;99.90;;;;;;4968566;28;20274;-86
2022/04/25 02:36:04;;;;;;;65.68;39.25;;;8.60;99.90;;;;;;4967122;28;20204;-86
2022/04/25 02:38:30;;;;;;;65.40;38.42;;;;;;;;;;4965751;28;20223;-87
2022/04/25 02:41:04;;;;;;;68.27;39.37;;;8.70;99.90;;;;;;4986192;28;20179;-87
2022/04/25 02:43:35;;;;;;;60.97;37.50;;;8.70;99.90;;;;;;4968193;28;20438;-87
2022/04/25 02:46:06;;;;;;;59.08;37.40;;;8.70;99.90;;;;;;4986463;28;20241;-87
2022/04/25 02:48:34;;;;;;;62.92;37.08;;;8.70;99.90;;;;;;4970846;28;20211;-88
2022/04/25 02:51:02;;;;;;;66.35;38.95;;;8.60;99.90;;;;;;4973067;28;20208;-86
2022/04/25 02:53:27;;;;;;;64.55;38.40;;;8.70;99.90;;;;;;4972944;28;20214;-87
2022/04/25 02:55:53;;;;;;;63.43;36.97;;;8.60;99.90;;;;;;4974409;28;20771;-87
2022/04/25 02:58:20;;;;;;;63.63;37.83;;;8.50;99.90;;;;;;4967961;28;20191;-88
2022/04/25 03:00:49;;;;;;;58.67;36.22;;;8.50;99.90;;;;;;4969983;28;20207;-88
2022/04/25 03:03:16;;;;;;;61.85;37.67;;;8.40;99.90;;;;;;4984601;28;20252;-87
2022/04/25 03:05:43;;;;;;;62.35;37.47;;;8.40;99.90;;;;;;4984644;28;20699;-87
2022/04/25 03:08:11;;;;;;;52.67;33.20;;;8.50;99.90;;;;;;4974804;28;20308;-88
2022/04/25 03:10:36;;;;;;;61.00;36.97;;;8.40;99.90;;;;;;4978703;28;20794;-88
2022/04/25 03:13:06;;;;;;;63.60;38.67;;;8.30;99.90;;;;;;4972901;28;20254;-88
2022/04/25 03:15:32;;;;;;;67.90;39.08;;;8.40;99.90;;;;;;4970462;28;20235;-88
2022/04/25 03:17:58;;;;;;;66.50;36.33;;;8.30;99.90;;;;;;4975911;28;20210;-87
2022/04/25 03:20:24;;;;;;;64.82;36.92;;;8.30;99.90;;;;;;4970758;28;20183;-87
2022/04/25 03:22:50;;;;;;;62.47;39.00;;;8.30;99.90;;;;;;4972354;28;20188;-86
2022/04/25 03:25:16;;;;;;;60.47;35.53;;;;;;;;;;4971479;28;21660;-87
2022/04/25 03:27:41;;;;;;;62.20;38.08;;;8.30;99.90;;;;;;4986839;28;20240;-86
2022/04/25 03:30:07;;;;;;;58.70;35.67;;;8.30;99.90;;;;;;4969897;28;20214;-87
2022/04/25 03:32:45;;;;;;;60.30;37.35;;;8.30;99.90;;;;;;4974329;28;20255;-88
2022/04/25 03:35:15;;;;;;;59.50;34.83;;;8.30;99.90;;;;;;4963704;28;20254;-86
2022/04/25 03:37:41;;;;;;;59.00;34.53;;;8.30;99.90;;;;;;4986527;28;20183;-87
2022/04/25 03:40:09;;;;;;;60.30;36.22;;;8.30;99.90;;;;;;4968882;28;20176;-88
2022/04/25 03:42:36;;;;;;;57.63;35.00;;;8.30;99.90;;;;;;4976546;28;20187;-88
2022/04/25 03:45:03;;;;;;;59.15;36.92;;;8.20;99.90;;;;;;4982939;28;20199;-85
2022/04/25 03:47:28;;;;;;;57.50;35.67;;;8.20;99.90;;;;;;4984630;28;20183;-87
2022/04/25 03:49:54;;;;;;;50.23;33.23;;;;;;;;;;4972483;28;20203;-85
2022/04/25 03:52:20;;;;;;;60.70;34.37;;;8.00;99.90;;;;;;4990208;28;20290;-87
2022/04/25 03:57:30;;;;;;;59.58;34.40;;;7.70;99.90;;;;;;4975432;28;20659;-87
2022/04/25 03:59:55;;;;;;;57.90;34.37;;;7.60;99.90;;;;;;4970411;28;20191;-87
2022/04/25 04:02:21;;;;;;;55.50;33.57;;;7.50;99.90;;;;;;4970414;28;20187;-87
2022/04/25 04:04:48;;;;;;;52.38;32.95;;;7.40;99.90;;;;;;4969367;28;20215;-87
2022/04/25 04:07:13;;;;;;;58.10;34.97;;;7.30;99.90;;;;;;4976833;28;20188;-86
2022/04/25 04:09:45;;;;;;;56.73;36.10;;;7.10;99.90;;;;;;4973994;28;20207;-86
2022/04/25 04:12:11;;;;;;;61.35;35.05;;;7.10;99.90;;;;;;4973364;28;20180;-86
2022/04/25 04:14:37;;;;;;;55.88;34.28;;;7.10;99.90;;;;;;4971857;28;20283;-85
2022/04/25 04:17:08;;;;;;;61.23;37.90;;;7.10;99.90;;;;;;4972727;28;20207;-87
2022/04/25 04:19:35;;;;;;;59.42;34.90;;;7.20;99.90;;;;;;4974901;28;20470;-87
2022/04/25 04:22:02;;;;;;;61.72;36.15;;;8.20;99.90;;;;;;4981414;28;20302;-87
2022/04/25 04:24:28;;;;;;;63.42;35.70;;;7.00;99.90;;;;;;4986975;28;20207;-86
2022/04/25 04:26:55;;;;;;;58.55;32.75;;;7.10;99.90;;;;;;4973843;28;20184;-87
2022/04/25 04:29:21;;;;;;;56.47;33.70;;;7.10;99.90;;;;;;4991562;28;20207;-86
2022/04/25 04:31:47;;;;;;;71.50;38.33;;;;;;;;;;4976820;28;20184;-86
2022/04/25 04:34:13;;;;;;;71.90;38.33;;;;;;;;;;4990612;28;20200;-86
2022/04/25 04:36:39;;;;;;;61.55;35.17;;;7.40;99.90;;;;;;4975758;28;20446;-87
2022/04/25 04:39:04;;;;;;;68.00;36.87;;;7.60;99.90;;;;;;4989325;28;20168;-86
2022/04/25 04:41:30;;;;;;;70.00;39.70;;;8.10;99.90;;;;;;4983042;28;20190;-84
2022/04/25 04:43:57;;;;;;;59.70;36.80;;;9.30;99.90;;;;;;4976294;28;20183;-86
2022/04/25 04:46:23;;;;;;;58.40;33.35;;;9.30;99.90;;;;;;4981149;28;20198;-86
2022/04/25 04:48:49;;;;;;;48.55;32.60;;;9.70;99.90;;;;;;4985399;28;20195;-88
2022/04/25 04:51:15;;;;;;;56.13;34.23;;;;;;;;;;4980601;28;20210;-88
2022/04/25 04:53:40;;;;;;;50.67;32.37;;;10.20;99.90;;;;;;4996266;28;20184;-86
2022/04/25 04:56:06;;;;;;;49.30;31.03;;;11.00;99.90;;;;;;4981766;28;20462;-88
2022/04/25 04:58:32;;;;;;;40.90;27.03;;;11.70;99.90;;;;;;4983736;28;20195;-88
2022/04/25 05:00:59;;;;;;;45.70;25.87;;;;;;;;;;5001356;28;20243;-89
2022/04/25 05:03:25;;;;;;;41.90;27.60;;;12.20;99.90;;;;;;4981658;28;20215;-88
2022/04/25 05:05:54;;;;;;;35.78;25.15;;;12.60;99.90;;;;;;4989468;28;20271;-91
2022/04/25 05:08:20;;;;;;;38.47;26.27;;;13.90;99.90;;;;;;4989897;28;20191;-87
2022/04/25 05:10:47;;;;;;;34.30;26.57;;;13.90;99.90;;;;;;4988798;28;20215;-88
2022/04/25 05:13:15;;;;;;;33.15;23.85;;;;;;;;;;4978816;28;20199;-86
2022/04/25 05:15:40;;;;;;;36.92;26.73;;;13.00;99.90;;;;;;4978461;28;20223;-87
2022/04/25 05:18:06;;;;;;;39.00;27.40;;;12.40;99.90;;;;;;4978599;28;20905;-86
2022/04/25 05:20:32;;;;;;;44.33;28.63;;;12.10;99.90;;;;;;4970571;28;20192;-87
2022/04/25 05:22:57;;;;;;;37.80;26.93;;;12.00;99.90;;;;;;4965259;28;20477;-86
2022/04/25 05:25:27;;;;;;;38.80;26.97;;;11.50;99.90;;;;;;4975828;28;20425;-87
2022/04/25 05:27:55;;;;;;;50.88;35.15;;;11.20;99.90;;;;;;4979156;28;20184;-87
2022/04/25 05:30:23;;;;;;;46.45;28.40;;;11.00;99.90;;;;;;4993063;28;20215;-87
2022/04/25 05:32:57;;;;;;;47.40;27.58;;;11.20;99.90;;;;;;4989195;28;20604;-86
2022/04/25 05:35:25;;;;;;;35.83;26.08;;;12.00;99.90;;;;;;4990560;28;20210;-86
2022/04/25 05:37:51;;;;;;;37.22;26.85;;;12.00;99.90;;;;;;4972298;28;20204;-87
2022/04/25 05:40:18;;;;;;;34.30;26.40;;;12.50;99.90;;;;;;4974870;28;20188;-86
2022/04/25 05:42:44;;;;;;;43.00;27.00;;;12.80;99.90;;;;;;4978947;28;20437;-86
2022/04/25 05:45:14;;;;;;;37.25;26.92;;;13.20;99.90;;;;;;4982899;28;20219;-86
2022/04/25 05:47:41;;;;;;;40.47;27.65;;;13.60;99.90;;;;;;4968603;28;20319;-86
2022/04/25 05:52:52;;;;;;;32.60;24.33;;;14.70;99.90;;;;;;4961852;28;21084;-87
2022/04/25 05:55:18;;;;;;;30.47;24.87;;;15.70;99.90;;;;;;4965546;28;20467;-86
2022/04/25 05:57:45;;;;;;;33.50;24.80;;;17.10;99.90;;;;;;4965027;28;20940;-87
2022/04/25 06:00:12;;;;;;;33.17;26.30;;;17.30;99.90;;;;;;4967518;28;20859;-87
2022/04/25 06:02:39;;;;;;;35.20;24.37;;;17.00;99.90;;;;;;4970675;28;20446;-87
2022/04/25 06:05:09;;;;;;;32.33;25.10;;;16.60;99.90;;;;;;4954587;28;20501;-87
2022/04/25 06:07:35;;;;;;;35.60;25.50;;;16.10;99.90;;;;;;4949367;28;20557;-87
2022/04/25 06:10:01;;;;;;;44.47;28.93;;;16.10;99.90;;;;;;4945629;28;20524;-86
2022/04/25 06:12:29;;;;;;;35.27;25.40;;;15.70;99.90;;;;;;4948495;28;20193;-87
2022/04/25 06:14:58;;;;;;;38.60;24.43;;;15.50;99.90;;;;;;4967267;28;20474;-87
2022/04/25 06:17:24;;;;;;;34.30;25.77;;;15.50;99.90;;;;;;4964812;28;22733;-87
2022/04/25 06:19:49;;;;;;;37.93;26.90;;;16.90;99.90;;;;;;4940212;28;21853;-86
2022/04/25 06:22:18;;;;;;;31.13;25.03;;;15.30;99.90;;;;;;4975629;28;21208;-86
2022/04/25 06:24:43;;;;;;;34.77;25.63;;;16.80;99.90;;;;;;4962752;28;20216;-87
2022/04/25 06:27:09;;;;;;;32.37;23.80;;;;;;;;;;4974300;28;20451;-85
2022/04/25 06:29:35;;;;;;;28.73;22.37;;;19.30;99.90;;;;;;5001446;28;20203;-87
2022/04/25 06:32:05;;;;;;;28.57;22.83;;;20.80;99.90;;;;;;4971032;28;20439;-86
2022/04/25 06:34:31;;;;;;;28.80;22.30;;;21.20;99.90;;;;;;4977629;28;21050;-85
2022/04/25 06:36:57;;;;;;;28.67;24.03;;;;;;;;;;4961261;28;20959;-88
2022/04/25 06:39:23;;;;;;;28.23;24.13;;;;;;;;;;4981730;28;20467;-86
2022/04/25 06:41:49;;;;;;;29.13;23.53;;;;;;;;;;4992867;28;20537;-87
2022/04/25 06:44:15;;;;;;;28.73;23.47;;;;;;;;;;4992935;28;20537;-86
2022/04/25 06:46:41;;;;;;;33.13;24.03;;;21.30;99.90;;;;;;4968761;28;20446;-87
2022/04/25 06:49:27;;;;;;;27.47;23.27;;;21.30;99.90;;;;;;4984452;28;20451;-88
2022/04/25 06:51:56;;;;;;;27.73;22.60;;;22.00;99.90;;;;;;4965598;28;20279;-87
2022/04/25 06:54:22;;;;;;;27.80;22.77;;;;;;;;;;4963652;28;20459;-87
2022/04/25 06:56:48;;;;;;;23.93;21.33;;;;;;;;;;4970262;28;20694;-87
2022/04/25 06:59:14;;;;;;;26.10;22.23;;;;;;;;;;4981011;28;20510;-87
2022/04/25 07:01:40;;;;;;;23.20;20.50;;;;;;;;;;4968708;28;20498;-86
2022/04/25 07:04:06;;;;;;;23.80;21.30;;;;;;;;;;4983616;28;20441;-86
2022/04/25 07:06:33;;;;;;;21.40;19.10;;;;;;;;;;4975280;28;20450;-87
2022/04/25 07:08:58;;;;;;;22.13;19.77;;;30.20;71.80;;;;;;4974872;28;20432;-87
2022/04/25 07:11:24;;;;;;;23.83;21.33;;;30.60;66.90;;;;;;4960252;28;20508;-87
2022/04/25 07:13:51;;;;;;;24.10;21.80;;;;;;;;;;4965929;28;20597;-86
2022/04/25 07:16:17;;;;;;;23.90;21.50;;;;;;;;;;4982047;28;20258;-88
2022/04/25 07:18:43;;;;;;;25.73;23.00;;;;;;;;;;4970118;28;20497;-87
2022/04/25 07:29:23;;;;;;;26.00;23.60;;;29.60;59.20;;;;;;4971260;28;20523;-87
2022/04/25 07:31:51;;;;;;;25.37;22.90;;;29.60;60.60;;;;;;4969355;28;20497;-88
2022/04/25 07:34:20;;;;;;;27.37;23.17;;;28.60;59.70;;;;;;4972441;28;20453;-87
2022/04/25 07:36:51;;;;;;;24.60;22.10;;;28.60;61.40;;;;;;4981670;28;20430;-86
2022/04/25 07:39:21;;;;;;;23.40;20.90;;;30.00;59.30;;;;;;4979850;28;20486;-87
2022/04/25 07:41:47;;;;;;;24.03;21.57;;;30.40;55.90;;;;;;4974798;28;20539;-86
2022/04/25 07:44:13;;;;;;;26.97;24.07;;;30.40;56.40;;;;;;4966064;28;20494;-87
2022/04/25 07:46:40;;;;;;;24.63;22.10;;;;;;;;;;4971499;28;21630;-89
2022/04/25 07:49:07;;;;;;;26.97;24.17;;;;;;;;;;4964414;28;20443;-87
2022/04/25 07:51:33;;;;;;;26.83;24.30;;;;;;;;;;4986324;28;20447;-86
2022/04/25 07:53:59;;;;;;;26.53;23.93;;;;;;;;;;4984856;28;21115;-87
2022/04/25 07:56:26;;;;;;;25.70;23.30;;;;;;;;;;4975912;28;20439;-87
2022/04/25 07:58:52;;;;;;;27.07;24.40;;;29.30;55.50;;;;;;4969392;28;20534;-87
2022/04/25 08:01:18;;;;;;;24.73;22.33;;;;;;;;;;4980239;28;20774;-87
2022/04/25 08:03:44;;;;;;;23.03;20.87;;;;;;;;;;4966005;28;20197;-87
2022/04/25 08:06:11;;;;;;;23.17;20.97;;;28.30;55.90;;;;;;4983098;28;20462;-88
2022/04/25 08:08:38;;;;;;;23.03;20.70;;;;;;;;;;4973433;28;20516;-87
2022/04/25 08:11:03;;;;;;;23.80;20.30;;;27.20;56.80;;;;;;4996557;28;20475;-88
2022/04/25 08:18:58;;;;;;;22.97;20.47;;;21.70;68.90;;;;;;4970382;28;20457;-86
2022/04/25 08:21:24;;;;;;;25.03;18.40;;;22.30;75.80;;;;;;4964030;28;20643;-87
2022/04/25 08:23:50;;;;;;;21.80;17.17;;;20.30;74.50;;;;;;4973895;28;20515;-88
2022/04/25 08:26:15;;;;;;;20.00;17.27;;;20.50;78.40;;;;;;4968621;28;20526;-89
2022/04/25 08:28:41;;;;;;;18.87;14.93;;;21.40;78.20;;;;;;4975395;28;20226;-88
2022/04/25 08:31:09;;;;;;;14.70;12.70;;;22.40;74.00;;;;;;4982351;28;20422;-89
2022/04/25 08:33:35;;;;;;;14.50;11.10;;;22.70;71.90;;;;;;4966489;28;20184;-90
2022/04/25 08:36:03;;;;;;;17.90;16.00;;;22.10;69.00;;;;;;4971744;28;20497;-88
2022/04/25 08:38:29;;;;;;;17.50;15.70;;;21.80;72.50;;;;;;4974067;28;20434;-88
2022/04/25 08:40:56;;;;;;;20.53;15.67;;;22.50;73.50;;;;;;4982397;28;20978;-89
2022/04/25 08:43:23;;;;;;;18.57;13.60;;;21.90;71.00;;;;;;4964471;28;20187;-88
2022/04/25 08:45:51;;;;;;;12.73;11.23;;;23.00;69.90;;;;;;4966707;28;21064;-90
2022/04/25 08:48:19;;;;;;;13.50;12.17;;;25.30;69.30;;;;;;4976692;28;20442;-88
2022/04/25 08:50:46;;;;;;;16.47;14.00;;;26.40;64.40;;;;;;4972006;28;20471;-88
2022/04/25 08:53:13;;;;;;;17.97;16.07;;;26.20;61.30;;;;;;4976686;28;20493;-89
2022/04/25 08:55:40;;;;;;;17.00;15.20;;;;;;;;;;4973648;28;20529;-89
2022/04/25 08:58:06;;;;;;;16.10;14.50;;;;;;;;;;4990985;28;20451;-89
2022/04/25 09:00:32;;;;;;;15.50;13.50;;;;;;;;;;4976060;28;20911;-88
2022/04/25 09:02:59;;;;;;;14.87;13.27;;;23.60;66.00;;;;;;4986491;28;20431;-89
2022/04/25 09:05:26;;;;;;;13.53;12.13;;;;;;;;;;4965284;28;20463;-89
2022/04/25 09:07:52;;;;;;;14.70;12.40;;;24.40;63.30;;;;;;4964033;28;20442;-89
2022/04/25 09:10:19;;;;;;;14.87;12.90;;;24.20;63.60;;;;;;4974046;28;20466;-88
2022/04/25 09:12:47;;;;;;;14.83;13.37;;;23.60;64.10;;;;;;4975541;28;21232;-89
2022/04/25 09:15:17;;;;;;;15.13;13.50;;;22.80;65.60;;;;;;4969955;28;20494;-89
2022/04/25 09:17:44;;;;;;;16.13;14.23;;;;;;;;;;5001139;28;20447;-90
2022/04/25 09:20:10;;;;;;;22.50;13.50;;;;;;;;;;4998072;28;20427;-89
2022/04/25 09:22:39;;;;;;;15.10;13.50;;;20.60;73.00;;;;;;4989428;28;21013;-89
2022/04/25 09:25:15;;;;;;;17.33;14.47;;;18.90;76.20;;;;;;4973654;28;20866;-89
2022/04/25 09:27:41;;;;;;;15.30;13.67;;;20.60;79.20;;;;;;4970346;28;21062;-89
2022/04/25 09:30:19;;;;;;;17.23;14.90;;;19.00;81.80;;;;;;4972424;28;20458;-88
2022/04/25 09:32:52;;;;;;;17.10;13.00;;;19.00;81.10;;;;;;4989751;28;20508;-88
2022/04/25 09:35:33;;;;;;;16.40;14.60;;;19.50;83.60;;;;;;4978567;28;20546;-91
2022/04/25 09:38:03;;;;;;;18.20;14.97;;;18.80;86.20;;;;;;4980206;28;20454;-89
2022/04/25 09:40:32;;;;;;;16.30;13.53;;;18.60;85.20;;;;;;4975922;28;20439;-89
2022/04/25 09:43:13;;;;;;;15.23;13.73;;;18.20;89.70;;;;;;4972735;28;20587;-88
2022/04/25 09:45:42;;;;;;;17.60;14.50;;;17.90;89.20;;;;;;4991978;28;20454;-89
2022/04/25 09:48:10;;;;;;;16.20;13.87;;;18.00;90.90;;;;;;4986120;28;20450;-90
2022/04/25 09:50:37;;;;;;;18.57;14.53;;;17.70;93.00;;;;;;4987201;28;20486;-88
2022/04/25 09:53:04;;;;;;;17.70;13.07;;;17.70;94.70;;;;;;4983958;28;20474;-89
2022/04/25 09:55:32;;;;;;;14.70;12.83;;;18.30;91.20;;;;;;4989753;28;20451;-88
2022/04/25 09:57:58;;;;;;;16.23;13.57;;;18.30;91.70;;;;;;4991238;28;20427;-88
2022/04/25 10:00:28;;;;;;;15.57;12.67;;;18.40;92.00;;;;;;4972828;28;20989;-88
2022/04/25 10:02:54;;;;;;;17.07;13.47;;;18.30;92.40;;;;;;4974945;28;20215;-88
2022/04/25 10:05:20;;;;;;;15.70;14.00;;;18.60;93.60;;;;;;4973714;28;20978;-89
2022/04/25 10:07:46;;;;;;;15.73;14.07;;;18.80;92.10;;;;;;4971684;28;20496;-88
2022/04/25 10:10:12;;;;;;;15.50;13.93;;;18.80;92.30;;;;;;4969015;28;20580;-89
2022/04/25 10:12:38;;;;;;;16.77;13.23;;;19.00;91.90;;;;;;4972452;28;20443;-88
2022/04/25 10:15:08;;;;;;;17.37;13.60;;;18.80;91.90;;;;;;4979163;28;20470;-88
2022/04/25 10:17:47;;;;;;;18.50;13.53;;;19.20;92.30;;;;;;4973808;28;20439;-89
2022/04/25 10:20:14;;;;;;;14.03;12.60;;;19.50;92.10;;;;;;4976571;28;20804;-88
2022/04/25 10:22:41;;;;;;;15.80;13.77;;;19.80;91.50;;;;;;4971878;28;20443;-88
2022/04/25 10:25:07;;;;;;;23.10;14.63;;;19.70;90.90;;;;;;4975448;28;20469;-89
2022/04/25 10:27:35;;;;;;;13.60;12.20;;;19.60;89.10;;;;;;4974402;28;20443;-89
2022/04/25 10:30:17;;;;;;;15.47;13.50;;;18.90;90.00;;;;;;4972761;28;20230;-88
2022/04/25 10:32:43;;;;;;;18.30;14.73;;;18.10;92.20;;;;;;4988318;28;20478;-88
2022/04/25 10:35:31;;;;;;;20.03;14.70;;;18.00;92.00;;;;;;4969980;28;20522;-88
2022/04/25 10:37:57;;;;;;;15.43;12.17;;;17.80;91.90;;;;;;4990450;28;20283;-88
2022/04/25 10:46:17;;;;;;;15.37;13.27;;;17.00;94.10;;;;;;4974641;28;20439;-88
2022/04/25 10:49:06;;;;;;;20.33;13.60;;;16.90;94.20;;;;;;4972182;28;21939;-89
2022/04/25 10:51:39;;;;;;;16.23;13.00;;;16.80;95.60;;;;;;4971555;28;20204;-89
2022/04/25 10:54:05;;;;;;;16.43;12.60;;;16.70;96.30;;;;;;4975712;28;20518;-88
2022/04/25 10:56:32;;;;;;;16.10;13.57;;;16.70;96.80;;;;;;4974546;28;20435;-88
2022/04/25 10:59:28;;;;;;;16.93;15.13;;;16.60;95.90;;;;;;4973250;28;20459;-87
2022/04/25 11:01:57;;;;;;;16.30;13.97;;;15.90;97.20;;;;;;4974025;28;20510;-89
2022/04/25 11:04:23;;;;;;;17.77;15.27;;;;;;;;;;4969264;28;20498;-88
2022/04/25 11:06:49;;;;;;;20.40;15.60;;;;;;;;;;4972195;28;20455;-88
2022/04/25 11:09:40;;;;;;;21.10;14.60;;;15.50;99.90;;;;;;4989662;28;21087;-88
2022/04/25 11:12:06;;;;;;;16.67;13.83;;;15.50;99.90;;;;;;4968391;28;20483;-89
2022/04/25 11:14:32;;;;;;;17.40;15.53;;;;;;;;;;4974181;28;20466;-88
2022/04/25 11:17:13;;;;;;;23.97;17.23;;;14.70;99.90;;;;;;4987941;28;20503;-88
2022/04/25 11:19:48;;;;;;;22.50;16.70;;;14.00;99.90;;;;;;4978338;28;20786;-89
2022/04/25 11:22:35;;;;;;;22.73;18.60;;;13.60;99.90;;;;;;4998813;28;20445;-88
2022/04/25 11:25:23;;;;;;;23.23;16.07;;;13.50;99.90;;;;;;4994221;28;20446;-90
2022/04/25 11:28:05;;;;;;;25.10;19.13;;;13.30;99.90;;;;;;4991145;28;20443;-88
2022/04/25 11:30:31;;;;;;;27.67;21.87;;;13.20;99.90;;;;;;4965706;28;20498;-90
2022/04/25 11:33:05;;;;;;;26.47;19.47;;;13.20;99.90;;;;;;4970737;28;20454;-88
2022/04/25 11:35:30;;;;;;;29.40;20.97;;;13.20;99.90;;;;;;4986455;28;20298;-88
2022/04/25 11:37:57;;;;;;;27.17;21.27;;;13.30;99.90;;;;;;4973928;28;20455;-89
2022/04/25 11:40:23;;;;;;;27.77;19.83;;;;;;;;;;4977431;28;20202;-87
2022/04/25 11:42:49;;;;;;;26.88;19.85;;;;;;;;;;4977219;28;20457;-89
2022/04/25 11:45:15;;;;;;;27.70;20.30;;;;;;;;;;4993413;28;20211;-88
2022/04/25 11:47:41;;;;;;;28.57;21.67;;;;;;;;;;4991463;28;20447;-90
2022/04/25 11:50:12;;;;;;;23.40;19.97;;;15.00;99.90;;;;;;4990614;28;20474;-88
2022/04/25 11:52:56;;;;;;;25.77;19.43;;;15.50;99.90;;;;;;4992094;28;20439;-88
2022/04/25 11:55:34;;;;;;;23.40;17.20;;;15.50;99.90;;;;;;4979416;28;20454;-88
2022/04/25 11:58:00;;;;;;;21.17;17.83;;;;;;;;;;4976195;28;20442;-88
2022/04/25 12:00:27;;;;;;;20.23;17.53;;;;;;;;;;4995149;28;20422;-89
2022/04/25 12:02:53;;;;;;;24.40;17.43;;;;;;;;;;5005282;28;20435;-89
2022/04/25 12:05:29;;;;;;;19.40;17.27;;;15.90;99.90;;;;;;4994249;28;20502;-89
2022/04/25 12:16:09;;;;;;;24.27;18.60;;;;;;;;;;4978372;28;20489;-89
2022/04/25 12:18:49;;;;;;;27.47;21.23;;;14.20;99.90;;;;;;4993559;28;20478;-89
2022/04/25 12:21:17;;;;;;;31.87;24.83;;;;;;;;;;4978904;28;20905;-88
2022/04/25 12:23:53;;;;;;;29.40;21.23;;;14.30;99.90;;;;;;4992701;28;20435;-88
2022/04/25 12:26:26;;;;;;;27.73;20.93;;;14.30;99.90;;;;;;4975214;28;20437;-88
2022/04/25 12:28:59;;;;;;;31.27;23.10;;;14.90;99.90;;;;;;4976153;28;20438;-88
2022/04/25 12:31:25;;;;;;;25.57;20.23;;;;;;;;;;4976064;28;20471;-87
2022/04/25 12:33:52;;;;;;;32.00;23.10;;;;;;;;;;4988808;28;20428;-88
2022/04/25 12:36:27;;;;;;;24.73;20.90;;;15.30;99.90;;;;;;4990894;28;20431;-89
2022/04/25 12:38:57;;;;;;;26.23;20.57;;;15.40;99.90;;;;;;4975335;28;20434;-88
2022/04/25 12:41:27;;;;;;;27.60;21.80;;;15.60;99.90;;;;;;4976281;28;20434;-88
2022/04/25 12:43:55;;;;;;;31.13;22.90;;;15.60;99.90;;;;;;4990160;28;21091;-89
2022/04/25 12:46:36;;;;;;;27.93;20.00;;;15.50;99.90;;;;;;4976018;28;20772;-89
2022/04/25 12:49:07;;;;;;;23.67;18.63;;;15.40;99.90;;;;;;4975528;28;20446;-88
2022/04/25 12:51:51;;;;;;;24.67;19.80;;;15.40;99.90;;;;;;4968777;28;20469;-89
2022/04/25 12:54:26;;;;;;;22.43;19.43;;;15.30;99.90;;;;;;4974840;28;20454;-88
2022/04/25 12:57:24;;;;;;;21.37;18.37;;;15.10;99.90;;;;;;4977073;28;20698;-88
2022/04/25 12:59:53;;;;;;;23.10;18.00;;;15.00;99.90;;;;;;4971036;28;21126;-87
2022/04/25 13:02:32;;;;;;;25.90;18.93;;;14.70;99.90;;;;;;4991562;28;20435;-88
2022/04/25 13:04:59;;;;;;;27.30;18.50;;;14.50;99.90;;;;;;4989590;28;20483;-88
2022/04/25 13:07:31;;;;;;;25.13;18.00;;;14.40;99.90;;;;;;4975740;28;20423;-89
2022/04/25 13:10:10;;;;;;;26.80;21.10;;;14.10;99.90;;;;;;4988767;28;20469;-87
2022/04/25 13:12:50;;;;;;;31.20;23.50;;;13.90;99.90;;;;;;4973061;28;20440;-88
2022/04/25 13:15:18;;;;;;;29.67;23.03;;;13.80;99.90;;;;;;4972930;28;20839;-87
2022/04/25 13:17:51;;;;;;;28.87;20.13;;;13.80;99.90;;;;;;4978422;28;20510;-88
2022/04/25 13:20:20;;;;;;;26.30;20.10;;;13.70;99.90;;;;;;4974996;28;20951;-88
2022/04/25 13:22:46;;;;;;;24.90;20.43;;;;;;;;;;4974672;28;20419;-88
2022/04/25 13:25:14;;;;;;;25.50;20.10;;;13.90;99.90;;;;;;4989440;28;20524;-87
2022/04/25 13:27:41;;;;;;;25.90;20.13;;;;;;;;;;4991130;28;20695;-88
2022/04/25 13:30:14;;;;;;;35.00;22.77;;;14.80;99.90;;;;;;4990544;28;20518;-88
2022/04/25 13:32:58;;;;;;;28.40;23.40;;;15.20;99.90;;;;;;4974283;28;20440;-88